sensor_id;sensor_type;location;lat;lon;timestamp;pressure;altitude;pressure_sealevel;temperature;humidity
50250;BME280;36133;42.522;27.456;2023-05-21T00:00:58;100968.66;;;22.69;42.99
50250;BME280;36133;42.522;27.456;2023-05-21T00:03:23;100985.16;;;23.01;42.33
50250;BME280;36133;42.522;27.456;2023-05-21T00:05:51;100944.75;;;22.42;43.04
50250;BME280;36133;42.522;27.456;2023-05-21T00:08:16;100755.03;;;21.56;42.27
50250;BME280;36133;42.522;27.456;2023-05-21T00:10:42;100987.91;;;22.96;42.52
50250;BME280;36133;42.522;27.456;2023-05-21T00:13:08;100845.16;;;21.86;43.37
50250;BME280;36133;42.522;27.456;2023-05-21T00:15:35;100728.25;;;20.98;44.49
50250;BME280;36133;42.522;27.456;2023-05-21T00:18:03;100993.94;;;22.93;43.90
50250;BME280;36133;42.522;27.456;2023-05-21T00:20:28;100731.94;;;20.87;45.00
50250;BME280;36133;42.522;27.456;2023-05-21T00:22:57;100972.56;;;22.46;45.39
50250;BME280;36133;42.522;27.456;2023-05-21T00:25:23;100959.53;;;22.95;44.45
50250;BME280;36133;42.522;27.456;2023-05-21T00:27:48;100909.97;;;22.31;44.72
50250;BME280;36133;42.522;27.456;2023-05-21T00:30:14;100898.81;;;22.16;44.81
50250;BME280;36133;42.522;27.456;2023-05-21T00:32:40;100794.09;;;22.17;43.18
50250;BME280;36133;42.522;27.456;2023-05-21T00:35:06;100919.66;;;22.39;44.00
50250;BME280;36133;42.522;27.456;2023-05-21T00:37:32;100947.50;;;22.74;43.94
50250;BME280;36133;42.522;27.456;2023-05-21T00:40:02;100850.34;;;21.83;45.01
50250;BME280;36133;42.522;27.456;2023-05-21T00:42:33;100844.22;;;21.76;46.15
50250;BME280;36133;42.522;27.456;2023-05-21T00:45:06;100887.84;;;22.48;45.37
50250;BME280;36133;42.522;27.456;2023-05-21T00:47:33;100788.31;;;21.65;45.86
50250;BME280;36133;42.522;27.456;2023-05-21T00:50:01;100898.88;;;22.21;45.77
50250;BME280;36133;42.522;27.456;2023-05-21T00:52:27;100766.31;;;20.94;46.74
50250;BME280;36133;42.522;27.456;2023-05-21T00:54:54;100884.34;;;21.77;46.61
50250;BME280;36133;42.522;27.456;2023-05-21T00:57:21;100887.34;;;21.75;46.52
50250;BME280;36133;42.522;27.456;2023-05-21T00:59:50;100925.38;;;22.05;46.22
50250;BME280;36133;42.522;27.456;2023-05-21T01:02:15;100944.38;;;22.07;46.53
50250;BME280;36133;42.522;27.456;2023-05-21T01:04:44;100943.06;;;21.92;47.08
50250;BME280;36133;42.522;27.456;2023-05-21T01:07:09;100864.63;;;21.36;47.45
50250;BME280;36133;42.522;27.456;2023-05-21T01:09:35;100916.56;;;21.81;46.33
50250;BME280;36133;42.522;27.456;2023-05-21T01:12:01;100896.66;;;21.69;46.18
50250;BME280;36133;42.522;27.456;2023-05-21T01:14:28;100913.00;;;21.81;45.77
50250;BME280;36133;42.522;27.456;2023-05-21T01:16:54;100841.84;;;21.35;45.85
50250;BME280;36133;42.522;27.456;2023-05-21T01:19:21;100911.00;;;21.76;46.00
50250;BME280;36133;42.522;27.456;2023-05-21T01:21:59;100833.00;;;21.55;45.53
50250;BME280;36133;42.522;27.456;2023-05-21T01:24:25;100840.34;;;20.89;46.55
50250;BME280;36133;42.522;27.456;2023-05-21T01:26:50;100891.16;;;21.47;46.75
50250;BME280;36133;42.522;27.456;2023-05-21T01:29:16;100836.53;;;21.78;46.05
50250;BME280;36133;42.522;27.456;2023-05-21T01:35:08;100900.75;;;21.28;47.96
50250;BME280;36133;42.522;27.456;2023-05-21T01:37:55;100889.34;;;21.19;47.40
50250;BME280;36133;42.522;27.456;2023-05-21T01:40:33;100871.16;;;21.13;47.17
50250;BME280;36133;42.522;27.456;2023-05-21T01:43:02;100834.00;;;21.05;46.96
50250;BME280;36133;42.522;27.456;2023-05-21T01:45:31;100798.78;;;20.42;47.64
50250;BME280;36133;42.522;27.456;2023-05-21T01:47:57;100803.66;;;21.17;46.32
50250;BME280;36133;42.522;27.456;2023-05-21T01:50:24;100847.56;;;20.95;47.13
50250;BME280;36133;42.522;27.456;2023-05-21T01:52:55;100820.31;;;21.27;46.89
50250;BME280;36133;42.522;27.456;2023-05-21T01:55:25;100727.88;;;20.51;47.99
50250;BME280;36133;42.522;27.456;2023-05-21T01:57:53;100736.63;;;20.69;47.54
50250;BME280;36133;42.522;27.456;2023-05-21T02:00:24;100636.22;;;20.08;48.40
50250;BME280;36133;42.522;27.456;2023-05-21T02:02:52;100841.59;;;20.98;48.40
50250;BME280;36133;42.522;27.456;2023-05-21T02:05:18;100595.25;;;19.29;49.11
50250;BME280;36133;42.522;27.456;2023-05-21T02:07:44;100704.72;;;20.25;48.96
50250;BME280;36133;42.522;27.456;2023-05-21T02:10:10;100763.09;;;20.97;47.44
50250;BME280;36133;42.522;27.456;2023-05-21T02:12:37;100879.38;;;21.30;47.86
50250;BME280;36133;42.522;27.456;2023-05-21T02:15:03;100873.94;;;21.79;46.77
50250;BME280;36133;42.522;27.456;2023-05-21T02:17:28;100890.22;;;22.66;45.27
50250;BME280;36133;42.522;27.456;2023-05-21T02:20:00;100885.16;;;22.26;45.81
50250;BME280;36133;42.522;27.456;2023-05-21T02:22:45;100835.19;;;21.80;45.63
50250;BME280;36133;42.522;27.456;2023-05-21T02:25:13;100889.47;;;22.44;45.33
50250;BME280;36133;42.522;27.456;2023-05-21T02:27:41;100888.09;;;22.46;44.83
50250;BME280;36133;42.522;27.456;2023-05-21T02:30:08;100889.94;;;22.68;44.46
50250;BME280;36133;42.522;27.456;2023-05-21T02:32:35;100872.06;;;22.70;43.97
50250;BME280;36133;42.522;27.456;2023-05-21T02:35:01;100879.97;;;22.62;44.49
50250;BME280;36133;42.522;27.456;2023-05-21T02:37:28;100856.28;;;22.56;44.21
50250;BME280;36133;42.522;27.456;2023-05-21T02:39:53;100855.09;;;22.46;44.21
50250;BME280;36133;42.522;27.456;2023-05-21T02:42:23;100858.75;;;21.71;45.34
50250;BME280;36133;42.522;27.456;2023-05-21T02:44:49;100846.38;;;21.47;46.26
50250;BME280;36133;42.522;27.456;2023-05-21T02:47:16;100901.22;;;21.85;46.59
50250;BME280;36133;42.522;27.456;2023-05-21T02:49:41;100810.13;;;20.34;47.34
50250;BME280;36133;42.522;27.456;2023-05-21T02:52:07;100835.47;;;20.58;47.13
50250;BME280;36133;42.522;27.456;2023-05-21T02:54:32;100658.50;;;19.78;46.10
50250;BME280;36133;42.522;27.456;2023-05-21T02:56:58;100661.59;;;20.20;45.36
50250;BME280;36133;42.522;27.456;2023-05-21T02:59:23;100900.13;;;21.86;44.84
50250;BME280;36133;42.522;27.456;2023-05-21T03:01:49;100893.00;;;21.90;44.87
50250;BME280;36133;42.522;27.456;2023-05-21T03:04:16;100546.78;;;19.29;45.52
50250;BME280;36133;42.522;27.456;2023-05-21T03:06:42;100754.66;;;21.04;44.85
50250;BME280;36133;42.522;27.456;2023-05-21T03:09:11;100771.50;;;21.56;43.79
50250;BME280;36133;42.522;27.456;2023-05-21T03:11:37;100578.44;;;20.53;43.00
50250;BME280;36133;42.522;27.456;2023-05-21T03:14:02;100666.59;;;20.84;43.40
50250;BME280;36133;42.522;27.456;2023-05-21T03:16:28;100466.50;;;20.01;42.55
50250;BME280;36133;42.522;27.456;2023-05-21T03:18:53;100920.19;;;23.00;42.11
50250;BME280;36133;42.522;27.456;2023-05-21T03:21:19;100884.59;;;22.88;41.92
50250;BME280;36133;42.522;27.456;2023-05-21T03:23:47;100933.34;;;22.61;43.32
50250;BME280;36133;42.522;27.456;2023-05-21T03:26:13;100835.72;;;22.31;42.78
50250;BME280;36133;42.522;27.456;2023-05-21T03:28:38;100915.09;;;23.24;42.07
50250;BME280;36133;42.522;27.456;2023-05-21T03:31:04;100914.69;;;23.47;41.53
50250;BME280;36133;42.522;27.456;2023-05-21T03:33:30;100874.41;;;23.36;41.31
50250;BME280;36133;42.522;27.456;2023-05-21T03:35:55;100877.75;;;23.43;40.81
50250;BME280;36133;42.522;27.456;2023-05-21T03:38:21;100917.59;;;23.73;41.14
50250;BME280;36133;42.522;27.456;2023-05-21T03:40:46;100822.78;;;23.11;40.95
50250;BME280;36133;42.522;27.456;2023-05-21T03:43:12;100934.66;;;23.70;40.91
50250;BME280;36133;42.522;27.456;2023-05-21T03:45:37;100940.31;;;24.05;40.79
50250;BME280;36133;42.522;27.456;2023-05-21T03:48:03;100884.03;;;23.96;40.38
50250;BME280;36133;42.522;27.456;2023-05-21T03:50:28;100784.91;;;23.38;40.38
50250;BME280;36133;42.522;27.456;2023-05-21T03:52:54;100936.41;;;23.96;41.49
50250;BME280;36133;42.522;27.456;2023-05-21T03:55:19;100840.69;;;22.71;42.74
50250;BME280;36133;42.522;27.456;2023-05-21T03:57:45;100926.53;;;23.48;42.47
50250;BME280;36133;42.522;27.456;2023-05-21T04:00:11;100886.97;;;23.74;41.40
50250;BME280;36133;42.522;27.456;2023-05-21T04:02:36;100936.78;;;24.25;41.06
50250;BME280;36133;42.522;27.456;2023-05-21T04:05:02;100936.56;;;24.57;40.54
50250;BME280;36133;42.522;27.456;2023-05-21T04:07:27;100934.88;;;24.46;40.57
50250;BME280;36133;42.522;27.456;2023-05-21T04:09:54;100937.94;;;24.39;40.70
50250;BME280;36133;42.522;27.456;2023-05-21T04:12:20;100939.59;;;24.50;40.11
50250;BME280;36133;42.522;27.456;2023-05-21T04:14:46;100868.84;;;23.93;40.07
50250;BME280;36133;42.522;27.456;2023-05-21T04:17:12;100819.56;;;23.29;40.17
50250;BME280;36133;42.522;27.456;2023-05-21T04:19:37;100850.16;;;23.33;39.99
50250;BME280;36133;42.522;27.456;2023-05-21T04:22:03;100838.03;;;23.29;39.93
50250;BME280;36133;42.522;27.456;2023-05-21T04:24:29;100886.25;;;24.04;39.02
50250;BME280;36133;42.522;27.456;2023-05-21T04:26:55;100807.41;;;24.54;37.73
50250;BME280;36133;42.522;27.456;2023-05-21T04:29:26;100759.41;;;24.24;37.67
50250;BME280;36133;42.522;27.456;2023-05-21T04:31:52;100924.38;;;25.19;37.67
50250;BME280;36133;42.522;27.456;2023-05-21T04:34:17;100848.09;;;25.33;36.83
50250;BME280;36133;42.522;27.456;2023-05-21T04:36:46;100694.28;;;24.34;36.66
50250;BME280;36133;42.522;27.456;2023-05-21T04:39:12;100908.47;;;25.65;36.32
50250;BME280;36133;42.522;27.456;2023-05-21T04:41:38;100875.84;;;26.90;34.76
50250;BME280;36133;42.522;27.456;2023-05-21T04:44:08;100931.34;;;27.38;34.31
50250;BME280;36133;42.522;27.456;2023-05-21T04:46:34;100927.28;;;28.16;33.29
50250;BME280;36133;42.522;27.456;2023-05-21T04:49:00;100840.75;;;27.95;32.52
50250;BME280;36133;42.522;27.456;2023-05-21T04:51:27;100915.31;;;28.91;31.51
50250;BME280;36133;42.522;27.456;2023-05-21T04:53:53;100910.06;;;28.89;31.28
50250;BME280;36133;42.522;27.456;2023-05-21T04:56:19;100889.41;;;28.44;31.86
50250;BME280;36133;42.522;27.456;2023-05-21T04:58:46;100916.69;;;28.74;31.94
50250;BME280;36133;42.522;27.456;2023-05-21T05:01:13;100860.88;;;29.31;30.49
50250;BME280;36133;42.522;27.456;2023-05-21T05:03:38;100881.00;;;28.49;31.89
50250;BME280;36133;42.522;27.456;2023-05-21T05:06:04;100754.53;;;27.11;32.14
50250;BME280;36133;42.522;27.456;2023-05-21T05:08:30;100926.41;;;28.39;32.11
50250;BME280;36133;42.522;27.456;2023-05-21T05:10:55;100894.59;;;27.94;32.64
50250;BME280;36133;42.522;27.456;2023-05-21T05:13:21;100857.00;;;28.72;31.55
50250;BME280;36133;42.522;27.456;2023-05-21T05:15:46;100919.03;;;28.81;32.03
50250;BME280;36133;42.522;27.456;2023-05-21T05:18:12;100901.03;;;28.78;31.80
50250;BME280;36133;42.522;27.456;2023-05-21T05:20:37;100902.25;;;29.05;31.53
50250;BME280;36133;42.522;27.456;2023-05-21T05:23:03;100842.25;;;29.59;30.38
50250;BME280;36133;42.522;27.456;2023-05-21T05:25:29;100930.31;;;29.36;30.88
50250;BME280;36133;42.522;27.456;2023-05-21T05:27:54;100832.16;;;29.63;29.73
50250;BME280;36133;42.522;27.456;2023-05-21T05:30:20;100926.16;;;31.36;28.30
50250;BME280;36133;42.522;27.456;2023-05-21T05:32:46;100863.00;;;31.89;27.43
50250;BME280;36133;42.522;27.456;2023-05-21T05:35:11;100924.69;;;30.54;28.53
50250;BME280;36133;42.522;27.456;2023-05-21T05:37:37;100932.41;;;31.33;27.75
50250;BME280;36133;42.522;27.456;2023-05-21T05:40:03;100510.06;;;29.82;26.77
50250;BME280;36133;42.522;27.456;2023-05-21T05:42:29;100915.72;;;32.85;25.67
50250;BME280;36133;42.522;27.456;2023-05-21T05:44:55;100941.00;;;32.20;26.43
50250;BME280;36133;42.522;27.456;2023-05-21T05:47:21;100829.00;;;28.68;29.37
50250;BME280;36133;42.522;27.456;2023-05-21T05:49:46;100835.13;;;29.66;28.98
50250;BME280;36133;42.522;27.456;2023-05-21T05:52:12;100856.22;;;29.67;29.64
50250;BME280;36133;42.522;27.456;2023-05-21T05:54:37;100853.94;;;28.41;31.23
50250;BME280;36133;42.522;27.456;2023-05-21T05:57:03;100936.22;;;28.13;32.06
50250;BME280;36133;42.522;27.456;2023-05-21T05:59:29;100819.19;;;28.57;30.84
50250;BME280;36133;42.522;27.456;2023-05-21T06:01:55;100890.84;;;30.92;28.24
50250;BME280;36133;42.522;27.456;2023-05-21T06:04:20;100937.72;;;32.09;27.08
50250;BME280;36133;42.522;27.456;2023-05-21T06:06:46;100871.63;;;31.70;26.83
50250;BME280;36133;42.522;27.456;2023-05-21T06:09:12;100951.25;;;32.50;26.30
50250;BME280;36133;42.522;27.456;2023-05-21T06:11:38;100953.13;;;31.98;26.69
50250;BME280;36133;42.522;27.456;2023-05-21T06:14:03;100863.09;;;32.70;26.25
50250;BME280;36133;42.522;27.456;2023-05-21T06:16:29;100719.94;;;33.03;24.78
50250;BME280;36133;42.522;27.456;2023-05-21T06:18:58;100895.38;;;32.33;26.30
50250;BME280;36133;42.522;27.456;2023-05-21T06:21:24;100944.81;;;31.58;26.83
50250;BME280;36133;42.522;27.456;2023-05-21T06:23:49;100665.63;;;31.89;25.21
50250;BME280;36133;42.522;27.456;2023-05-21T06:26:15;100890.25;;;35.25;23.15
50250;BME280;36133;42.522;27.456;2023-05-21T06:28:43;100964.59;;;35.07;23.34
50250;BME280;36133;42.522;27.456;2023-05-21T06:31:08;100954.13;;;33.61;24.90
50250;BME280;36133;42.522;27.456;2023-05-21T06:33:39;100933.97;;;32.14;26.35
50250;BME280;36133;42.522;27.456;2023-05-21T06:36:05;100733.00;;;29.17;28.38
50250;BME280;36133;42.522;27.456;2023-05-21T06:38:30;100955.81;;;32.20;26.56
50250;BME280;36133;42.522;27.456;2023-05-21T06:40:57;100726.94;;;29.65;28.17
50250;BME280;36133;42.522;27.456;2023-05-21T06:43:23;100865.34;;;31.47;27.13
50250;BME280;36133;42.522;27.456;2023-05-21T06:45:56;100459.03;;;27.66;28.32
50250;BME280;36133;42.522;27.456;2023-05-21T06:48:27;100776.50;;;28.20;29.97
50250;BME280;36133;42.522;27.456;2023-05-21T06:50:52;100406.28;;;26.22;29.98
50250;BME280;36133;42.522;27.456;2023-05-21T06:53:20;100812.84;;;28.70;29.75
50250;BME280;36133;42.522;27.456;2023-05-21T06:55:46;100715.09;;;28.27;29.88
50250;BME280;36133;42.522;27.456;2023-05-21T06:58:13;100916.50;;;29.44;29.75
50250;BME280;36133;42.522;27.456;2023-05-21T07:00:39;100567.69;;;25.89;31.85
50250;BME280;36133;42.522;27.456;2023-05-21T07:03:04;100700.28;;;28.59;29.59
50250;BME280;36133;42.522;27.456;2023-05-21T07:05:30;100943.50;;;28.46;31.56
50250;BME280;36133;42.522;27.456;2023-05-21T07:07:56;100858.88;;;28.44;31.50
50250;BME280;36133;42.522;27.456;2023-05-21T07:10:21;100772.44;;;27.80;31.35
50250;BME280;36133;42.522;27.456;2023-05-21T07:12:47;100744.06;;;28.35;30.11
50250;BME280;36133;42.522;27.456;2023-05-21T07:15:16;100499.69;;;27.25;30.26
50250;BME280;36133;42.522;27.456;2023-05-21T07:17:41;100748.81;;;29.08;29.70
50250;BME280;36133;42.522;27.456;2023-05-21T07:20:10;100689.09;;;28.64;30.08
50250;BME280;36133;42.522;27.456;2023-05-21T07:22:40;100581.97;;;28.85;28.89
50250;BME280;36133;42.522;27.456;2023-05-21T07:25:09;100700.09;;;28.55;30.49
50250;BME280;36133;42.522;27.456;2023-05-21T07:27:35;100645.72;;;29.18;29.49
50250;BME280;36133;42.522;27.456;2023-05-21T07:30:03;100676.03;;;28.92;30.35
50250;BME280;36133;42.522;27.456;2023-05-21T07:32:29;100643.09;;;28.85;30.52
50250;BME280;36133;42.522;27.456;2023-05-21T07:34:55;100479.63;;;27.60;30.45
50250;BME280;36133;42.522;27.456;2023-05-21T07:37:21;100611.31;;;28.09;31.19
50250;BME280;36133;42.522;27.456;2023-05-21T07:39:47;100684.56;;;28.41;31.22
50250;BME280;36133;42.522;27.456;2023-05-21T07:42:12;100924.75;;;29.63;31.92
50250;BME280;36133;42.522;27.456;2023-05-21T07:44:38;100515.22;;;26.08;33.06
50250;BME280;36133;42.522;27.456;2023-05-21T07:47:04;100726.47;;;27.93;32.98
50250;BME280;36133;42.522;27.456;2023-05-21T07:49:32;100441.16;;;27.12;32.00
50250;BME280;36133;42.522;27.456;2023-05-21T07:52:01;100538.03;;;28.24;30.72
50250;BME280;36133;42.522;27.456;2023-05-21T07:54:27;100923.31;;;31.19;29.53
50250;BME280;36133;42.522;27.456;2023-05-21T07:56:52;100674.53;;;29.22;29.95
50250;BME280;36133;42.522;27.456;2023-05-21T07:59:24;100745.50;;;29.69;29.76
50250;BME280;36133;42.522;27.456;2023-05-21T08:01:50;100796.44;;;31.73;27.98
50250;BME280;36133;42.522;27.456;2023-05-21T08:04:15;100715.19;;;30.75;28.41
50250;BME280;36133;42.522;27.456;2023-05-21T08:06:41;100934.28;;;32.12;28.64
50250;BME280;36133;42.522;27.456;2023-05-21T08:09:07;100682.34;;;30.54;28.93
50250;BME280;36133;42.522;27.456;2023-05-21T08:11:33;100495.75;;;29.35;28.55
50250;BME280;36133;42.522;27.456;2023-05-21T08:14:05;100486.91;;;27.56;31.11
50250;BME280;36133;42.522;27.456;2023-05-21T08:16:37;100502.91;;;27.45;31.24
50250;BME280;36133;42.522;27.456;2023-05-21T08:19:03;100582.69;;;28.27;31.06
50250;BME280;36133;42.522;27.456;2023-05-21T08:21:31;100717.25;;;28.44;32.33
50250;BME280;36133;42.522;27.456;2023-05-21T08:24:00;100764.75;;;28.88;32.01
50250;BME280;36133;42.522;27.456;2023-05-21T08:26:27;100540.06;;;28.46;30.91
50250;BME280;36133;42.522;27.456;2023-05-21T08:28:53;100514.50;;;27.34;31.50
50250;BME280;36133;42.522;27.456;2023-05-21T08:31:19;100477.44;;;26.78;31.76
50250;BME280;36133;42.522;27.456;2023-05-21T08:34:13;100486.66;;;27.71;30.78
50250;BME280;36133;42.522;27.456;2023-05-21T08:36:47;100944.13;;;29.55;31.80
50250;BME280;36133;42.522;27.456;2023-05-21T08:39:21;100507.16;;;26.54;32.85
50250;BME280;36133;42.522;27.456;2023-05-21T08:41:49;100891.78;;;29.29;32.81
50250;BME280;36133;42.522;27.456;2023-05-21T08:44:20;100916.47;;;29.17;33.13
50250;BME280;36133;42.522;27.456;2023-05-21T08:46:49;100710.81;;;27.45;34.19
50250;BME280;36133;42.522;27.456;2023-05-21T08:49:22;100646.97;;;27.69;33.03
50250;BME280;36133;42.522;27.456;2023-05-21T08:51:52;100857.91;;;29.55;32.38
50250;BME280;36133;42.522;27.456;2023-05-21T08:54:17;100797.06;;;29.26;31.73
50250;BME280;36133;42.522;27.456;2023-05-21T08:56:43;100784.91;;;28.94;32.06
50250;BME280;36133;42.522;27.456;2023-05-21T08:59:40;100945.78;;;29.69;32.88
50250;BME280;36133;42.522;27.456;2023-05-21T09:02:33;100964.16;;;30.70;31.72
50250;BME280;36133;42.522;27.456;2023-05-21T09:05:08;100940.22;;;31.23;30.88
50250;BME280;36133;42.522;27.456;2023-05-21T09:08:02;100605.84;;;29.90;29.75
50250;BME280;36133;42.522;27.456;2023-05-21T09:10:53;100947.88;;;31.39;30.39
50250;BME280;36133;42.522;27.456;2023-05-21T09:13:22;100520.06;;;29.83;29.50
50250;BME280;36133;42.522;27.456;2023-05-21T09:15:57;100535.97;;;30.31;28.59
50250;BME280;36133;42.522;27.456;2023-05-21T09:18:23;100492.91;;;31.41;26.95
50250;BME280;36133;42.522;27.456;2023-05-21T09:20:48;100911.59;;;36.27;24.72
50250;BME280;36133;42.522;27.456;2023-05-21T09:23:18;100748.91;;;35.54;23.70
50250;BME280;36133;42.522;27.456;2023-05-21T09:25:48;100771.41;;;36.10;23.64
50250;BME280;36133;42.522;27.456;2023-05-21T09:28:26;100949.50;;;38.16;22.67
50250;BME280;36133;42.522;27.456;2023-05-21T09:30:52;100951.09;;;36.59;23.86
50250;BME280;36133;42.522;27.456;2023-05-21T09:33:27;100961.50;;;37.14;23.45
50250;BME280;36133;42.522;27.456;2023-05-21T09:36:09;100931.63;;;36.26;24.34
50250;BME280;36133;42.522;27.456;2023-05-21T09:38:35;100685.16;;;34.65;24.53
50250;BME280;36133;42.522;27.456;2023-05-21T09:41:06;100730.34;;;36.96;22.58
50250;BME280;36133;42.522;27.456;2023-05-21T09:43:32;100782.22;;;36.52;23.20
50250;BME280;36133;42.522;27.456;2023-05-21T09:46:00;100943.25;;;36.80;23.83
50250;BME280;36133;42.522;27.456;2023-05-21T09:48:42;100955.66;;;36.91;24.19
50250;BME280;36133;42.522;27.456;2023-05-21T09:51:16;100754.78;;;35.89;23.70
50250;BME280;36133;42.522;27.456;2023-05-21T09:53:55;100870.94;;;33.03;27.99
50250;BME280;36133;42.522;27.456;2023-05-21T09:56:27;100677.19;;;33.23;26.46
50250;BME280;36133;42.522;27.456;2023-05-21T09:59:00;100747.41;;;31.90;28.51
50250;BME280;36133;42.522;27.456;2023-05-21T10:01:30;100804.28;;;33.05;27.65
50250;BME280;36133;42.522;27.456;2023-05-21T10:04:00;100796.34;;;32.77;28.45
50250;BME280;36133;42.522;27.456;2023-05-21T10:06:28;100746.22;;;31.56;29.42
50250;BME280;36133;42.522;27.456;2023-05-21T10:08:55;100451.91;;;31.33;27.51
50250;BME280;36133;42.522;27.456;2023-05-21T10:11:31;100641.50;;;31.07;29.13
50250;BME280;36133;42.522;27.456;2023-05-21T10:16:54;100535.06;;;28.84;31.27
50250;BME280;36133;42.522;27.456;2023-05-21T10:19:30;100484.22;;;28.97;31.38
50250;BME280;36133;42.522;27.456;2023-05-21T10:21:59;100763.34;;;33.59;27.82
50250;BME280;36133;42.522;27.456;2023-05-21T10:24:26;100715.78;;;33.09;28.19
50250;BME280;36133;42.522;27.456;2023-05-21T10:27:09;100942.84;;;35.04;27.05
50250;BME280;36133;42.522;27.456;2023-05-21T10:30:05;100764.91;;;36.50;24.55
50250;BME280;36133;42.522;27.456;2023-05-21T10:32:31;100601.03;;;33.17;27.04
50250;BME280;36133;42.522;27.456;2023-05-21T10:34:58;100964.31;;;35.00;27.00
50250;BME280;36133;42.522;27.456;2023-05-21T10:37:36;100742.50;;;34.23;26.67
50250;BME280;36133;42.522;27.456;2023-05-21T10:40:02;100567.75;;;36.86;22.84
50250;BME280;36133;42.522;27.456;2023-05-21T10:51:37;100924.94;;;34.96;26.74
50250;BME280;36133;42.522;27.456;2023-05-21T10:56:38;100929.06;;;37.68;23.83
50250;BME280;36133;42.522;27.456;2023-05-21T11:01:52;100786.81;;;34.99;26.04
50250;BME280;36133;42.522;27.456;2023-05-21T11:04:26;100507.75;;;34.65;24.69
50250;BME280;36133;42.522;27.456;2023-05-21T11:06:52;100537.94;;;32.96;26.64
50250;BME280;36133;42.522;27.456;2023-05-21T11:09:18;100642.75;;;32.51;27.88
50250;BME280;36133;42.522;27.456;2023-05-21T11:11:51;100703.16;;;33.03;28.12
50250;BME280;36133;42.522;27.456;2023-05-21T11:14:36;100924.22;;;34.87;27.60
50250;BME280;36133;42.522;27.456;2023-05-21T11:17:16;100931.34;;;35.78;26.70
50250;BME280;36133;42.522;27.456;2023-05-21T11:20:07;100922.94;;;36.31;26.01
50250;BME280;36133;42.522;27.456;2023-05-21T11:22:37;100511.31;;;33.10;26.79
50250;BME280;36133;42.522;27.456;2023-05-21T11:25:03;100663.56;;;34.42;26.21
50250;BME280;36133;42.522;27.456;2023-05-21T11:27:47;100518.78;;;33.97;25.89
50250;BME280;36133;42.522;27.456;2023-05-21T11:30:17;100779.31;;;35.52;26.13
50250;BME280;36133;42.522;27.456;2023-05-21T11:35:59;100651.97;;;35.04;26.13
50250;BME280;36133;42.522;27.456;2023-05-21T11:38:29;100642.63;;;35.68;24.87
50250;BME280;36133;42.522;27.456;2023-05-21T11:47:04;100747.25;;;34.43;27.04
50250;BME280;36133;42.522;27.456;2023-05-21T11:49:31;100503.69;;;31.51;28.35
50250;BME280;36133;42.522;27.456;2023-05-21T11:52:00;100768.41;;;34.20;26.96
50250;BME280;36133;42.522;27.456;2023-05-21T11:54:50;100752.34;;;33.75;27.86
50250;BME280;36133;42.522;27.456;2023-05-21T11:57:20;100697.91;;;33.85;26.95
50250;BME280;36133;42.522;27.456;2023-05-21T11:59:52;100421.22;;;32.72;26.56
50250;BME280;36133;42.522;27.456;2023-05-21T12:02:19;100737.09;;;35.36;26.21
50250;BME280;36133;42.522;27.456;2023-05-21T12:04:49;100716.31;;;35.37;25.58
50250;BME280;36133;42.522;27.456;2023-05-21T12:07:29;100818.41;;;33.46;28.51
50250;BME280;36133;42.522;27.456;2023-05-21T12:10:07;100468.06;;;30.01;30.29
50250;BME280;36133;42.522;27.456;2023-05-21T12:12:33;100895.06;;;33.84;28.94
50250;BME280;36133;42.522;27.456;2023-05-21T12:15:00;100589.88;;;32.67;27.78
50250;BME280;36133;42.522;27.456;2023-05-21T12:17:29;100901.53;;;35.86;26.42
50250;BME280;36133;42.522;27.456;2023-05-21T12:20:19;100671.06;;;33.84;26.73
50250;BME280;36133;42.522;27.456;2023-05-21T12:22:50;100474.66;;;29.12;31.20
50250;BME280;36133;42.522;27.456;2023-05-21T12:25:23;100743.28;;;30.96;31.11
50250;BME280;36133;42.522;27.456;2023-05-21T12:27:48;100726.72;;;30.20;32.76
50250;BME280;36133;42.522;27.456;2023-05-21T12:30:21;100888.31;;;31.44;32.65
50250;BME280;36133;42.522;27.456;2023-05-21T12:32:47;100754.56;;;29.61;33.88
50250;BME280;36133;42.522;27.456;2023-05-21T12:35:25;100378.47;;;26.14;35.98
50250;BME280;36133;42.522;27.456;2023-05-21T12:37:50;100379.28;;;25.95;36.58
50250;BME280;36133;42.522;27.456;2023-05-21T12:40:37;100454.53;;;25.45;38.83
50250;BME280;36133;42.522;27.456;2023-05-21T12:43:06;100510.22;;;24.49;40.79
50250;BME280;36133;42.522;27.456;2023-05-21T12:45:45;100740.47;;;27.07;38.63
50250;BME280;36133;42.522;27.456;2023-05-21T12:48:16;100873.44;;;27.55;39.19
50250;BME280;36133;42.522;27.456;2023-05-21T12:50:42;100920.91;;;28.15;38.66
50250;BME280;36133;42.522;27.456;2023-05-21T12:53:13;100917.53;;;28.56;38.25
50250;BME280;36133;42.522;27.456;2023-05-21T12:55:45;100714.19;;;27.24;38.79
50250;BME280;36133;42.522;27.456;2023-05-21T12:58:12;100739.31;;;27.89;37.92
50250;BME280;36133;42.522;27.456;2023-05-21T13:00:40;100362.22;;;25.46;37.71
50250;BME280;36133;42.522;27.456;2023-05-21T13:03:09;100752.78;;;27.95;37.17
50250;BME280;36133;42.522;27.456;2023-05-21T13:05:39;100894.75;;;29.19;37.23
50250;BME280;36133;42.522;27.456;2023-05-21T13:08:05;100450.03;;;25.78;38.00
50250;BME280;36133;42.522;27.456;2023-05-21T13:10:34;100470.28;;;26.16;37.25
50250;BME280;36133;42.522;27.456;2023-05-21T13:13:05;100434.78;;;26.61;36.35
50250;BME280;36133;42.522;27.456;2023-05-21T13:15:36;100694.22;;;29.12;34.52
50250;BME280;36133;42.522;27.456;2023-05-21T13:18:02;100620.88;;;28.99;35.01